Time;durP1;ratioP1;P1;durP2;ratioP2;P2;SDS_P1;SDS_P2;PMS_P1;PMS_P2;Temp;Humidity;BMP_temperature;BMP_pressure;BME280_temperature;BME280_humidity;BME280_pressure;Samples;Min_cycle;Max_cycle;Signal;HPM_P1;HPM_P2
2023/04/26 00:00:05;;;;;;;9.27;2.47;;;4.70;99.90;;;;;;4997168;28;20472;-52
2023/04/26 00:02:33;;;;;;;6.90;2.20;;;4.70;99.90;;;;;;4996076;28;20711;-53
2023/04/26 00:05:02;;;;;;;7.63;2.20;;;4.60;99.90;;;;;;4996919;28;21200;-55
2023/04/26 00:07:31;;;;;;;6.40;2.40;;;4.60;99.90;;;;;;4993772;28;20587;-54
2023/04/26 00:09:59;;;;;;;14.63;2.83;;;4.60;99.90;;;;;;4997225;28;21045;-54
2023/04/26 00:12:27;;;;;;;12.43;2.03;;;4.60;99.90;;;;;;4996630;28;20514;-53
2023/04/26 00:14:57;;;;;;;12.90;2.47;;;4.50;99.90;;;;;;4996424;28;20910;-52
2023/04/26 00:17:25;;;;;;;12.17;2.70;;;4.70;99.90;;;;;;4992933;28;20591;-53
2023/04/26 00:19:53;;;;;;;6.70;2.60;;;4.70;99.90;;;;;;4996714;28;21001;-55
2023/04/26 00:22:23;;;;;;;7.40;2.40;;;4.60;99.90;;;;;;4996094;28;20233;-53
2023/04/26 00:24:51;;;;;;;10.63;2.70;;;4.70;99.90;;;;;;4996588;28;20475;-53
2023/04/26 00:27:19;;;;;;;8.83;2.20;;;4.70;99.90;;;;;;4993366;28;20221;-54
2023/04/26 00:29:47;;;;;;;10.13;2.63;;;4.70;99.90;;;;;;4994520;28;20475;-53
2023/04/26 00:32:15;;;;;;;7.27;2.20;;;4.70;99.90;;;;;;4995674;28;20249;-53
2023/04/26 00:34:43;;;;;;;9.93;2.37;;;4.70;99.90;;;;;;4996434;28;21127;-52
2023/04/26 00:37:12;;;;;;;11.17;2.07;;;4.60;99.90;;;;;;4993193;28;20989;-54
2023/04/26 00:39:42;;;;;;;17.20;3.30;;;4.60;99.90;;;;;;5010814;28;20471;-52
2023/04/26 00:42:10;;;;;;;16.13;3.20;;;4.60;99.90;;;;;;4996202;28;21063;-53
2023/04/26 00:44:39;;;;;;;9.77;2.27;;;4.60;99.90;;;;;;4995989;28;20474;-53
2023/04/26 00:47:08;;;;;;;5.80;2.50;;;4.50;99.90;;;;;;4993310;28;20470;-55
2023/04/26 00:49:36;;;;;;;9.23;2.70;;;4.50;99.90;;;;;;5011264;28;20500;-55
2023/04/26 00:52:05;;;;;;;10.80;2.50;;;4.50;99.90;;;;;;5010516;28;20247;-52
2023/04/26 00:54:33;;;;;;;11.87;2.70;;;4.50;99.90;;;;;;4994356;28;20487;-53
2023/04/26 00:57:02;;;;;;;11.43;3.23;;;4.40;99.90;;;;;;4993012;28;20484;-54
2023/04/26 00:59:31;;;;;;;8.07;2.60;;;4.50;99.90;;;;;;4996258;28;20460;-54
2023/04/26 01:01:59;;;;;;;7.40;2.40;;;4.50;99.90;;;;;;4995494;28;21019;-52
2023/04/26 01:04:29;;;;;;;8.67;2.87;;;4.40;99.90;;;;;;4995070;28;20500;-53
2023/04/26 01:06:58;;;;;;;8.50;2.33;;;4.50;99.90;;;;;;4992802;28;20463;-52
2023/04/26 01:09:26;;;;;;;9.63;2.47;;;4.50;99.90;;;;;;4994364;28;21564;-52
2023/04/26 01:11:56;;;;;;;12.23;2.60;;;4.40;99.90;;;;;;4993748;28;20472;-52
2023/04/26 01:14:27;;;;;;;11.07;2.60;;;4.40;99.90;;;;;;4995351;28;20350;-50
2023/04/26 01:16:56;;;;;;;10.07;2.50;;;4.40;99.90;;;;;;4986779;28;20506;-53
2023/04/26 01:19:24;;;;;;;8.67;2.80;;;4.30;99.90;;;;;;5011152;28;20926;-53
2023/04/26 01:21:52;;;;;;;7.43;3.07;;;4.40;99.90;;;;;;4995436;28;20547;-54
2023/04/26 01:24:22;;;;;;;7.37;2.60;;;4.40;99.90;;;;;;4996327;28;21483;-54
2023/04/26 01:26:50;;;;;;;9.00;2.93;;;4.40;99.90;;;;;;4996552;28;21061;-53
2023/04/26 01:29:23;;;;;;;10.07;2.70;;;4.30;99.90;;;;;;5014957;28;20733;-54
2023/04/26 01:31:51;;;;;;;7.00;2.73;;;4.30;99.90;;;;;;4999399;28;20245;-53
2023/04/26 01:34:19;;;;;;;9.87;2.90;;;4.20;99.90;;;;;;4999363;28;21056;-53
2023/04/26 01:36:47;;;;;;;9.07;2.67;;;4.20;99.90;;;;;;4995366;28;20502;-53
2023/04/26 01:39:15;;;;;;;8.80;2.80;;;4.20;99.90;;;;;;4998011;28;20715;-53
2023/04/26 01:41:45;;;;;;;8.63;2.70;;;4.10;99.90;;;;;;4999424;28;21959;-52
2023/04/26 01:44:13;;;;;;;6.60;2.47;;;4.10;99.90;;;;;;4998484;28;20476;-52
2023/04/26 01:46:41;;;;;;;7.20;2.57;;;4.10;99.90;;;;;;5013018;28;20244;-53
2023/04/26 01:49:12;;;;;;;10.50;2.30;;;4.10;99.90;;;;;;4994151;28;20597;-52
2023/04/26 01:51:40;;;;;;;5.20;2.23;;;4.30;99.90;;;;;;5000505;28;20464;-54
2023/04/26 01:54:08;;;;;;;7.93;2.23;;;4.30;99.90;;;;;;5000644;28;21015;-52
2023/04/26 01:56:36;;;;;;;9.90;2.53;;;4.30;99.90;;;;;;4998255;28;20963;-53
2023/04/26 01:59:06;;;;;;;7.17;2.63;;;4.30;99.90;;;;;;4996792;28;20563;-53
2023/04/26 02:01:34;;;;;;;7.43;2.40;;;4.30;99.90;;;;;;5010255;28;21762;-53
2023/04/26 02:04:03;;;;;;;8.00;2.50;;;4.40;99.90;;;;;;5019575;28;20922;-54
2023/04/26 02:06:31;;;;;;;8.87;2.57;;;4.40;99.90;;;;;;5018543;28;20962;-53
2023/04/26 02:08:59;;;;;;;6.70;2.40;;;4.40;99.90;;;;;;4999811;28;20474;-53
2023/04/26 02:11:27;;;;;;;6.33;2.53;;;4.40;99.90;;;;;;5018771;28;20946;-54
2023/04/26 02:13:55;;;;;;;5.07;2.50;;;4.50;99.90;;;;;;5000576;28;20476;-53
2023/04/26 02:16:25;;;;;;;6.17;2.70;;;4.80;99.90;;;;;;5018808;28;20233;-55
2023/04/26 02:18:54;;;;;;;5.70;2.30;;;4.70;99.90;;;;;;5016612;28;20552;-52
2023/04/26 02:21:22;;;;;;;7.47;2.60;;;4.60;99.90;;;;;;5018713;28;20467;-51
2023/04/26 02:23:50;;;;;;;6.43;2.20;;;4.60;99.90;;;;;;5020830;28;20490;-54
2023/04/26 02:26:18;;;;;;;5.60;2.13;;;4.60;99.90;;;;;;5021100;28;20828;-55
2023/04/26 02:28:46;;;;;;;7.23;2.27;;;4.60;99.90;;;;;;4997966;28;20319;-52
2023/04/26 02:31:15;;;;;;;7.80;2.57;;;4.60;99.90;;;;;;5019296;28;20468;-53
2023/04/26 02:33:44;;;;;;;6.20;2.40;;;4.80;99.90;;;;;;5000742;28;21004;-50
2023/04/26 02:36:12;;;;;;;8.53;2.53;;;4.80;99.90;;;;;;5019053;28;20228;-53
2023/04/26 02:38:40;;;;;;;7.33;2.60;;;4.80;99.90;;;;;;5015290;28;20493;-54
2023/04/26 02:41:09;;;;;;;7.50;2.60;;;4.70;99.90;;;;;;5019542;28;20797;-52
2023/04/26 02:43:37;;;;;;;8.80;2.57;;;4.70;99.90;;;;;;5018171;28;20727;-52
2023/04/26 02:46:07;;;;;;;4.60;2.00;;;4.70;99.90;;;;;;5018436;28;20261;-54
2023/04/26 02:48:35;;;;;;;7.97;2.37;;;5.00;99.90;;;;;;4996385;28;20550;-54
2023/04/26 02:51:05;;;;;;;6.50;2.73;;;5.10;99.90;;;;;;5018532;28;20475;-53
2023/04/26 02:53:35;;;;;;;9.70;2.67;;;5.00;99.90;;;;;;4999852;28;20511;-53
2023/04/26 02:56:03;;;;;;;5.07;2.40;;;5.00;99.90;;;;;;4999596;28;20507;-54
2023/04/26 02:58:31;;;;;;;7.23;2.43;;;5.00;99.90;;;;;;5015372;28;20228;-52
2023/04/26 03:00:59;;;;;;;5.70;2.97;;;4.80;99.90;;;;;;5018431;28;20498;-51
2023/04/26 03:03:29;;;;;;;8.80;2.87;;;4.70;99.90;;;;;;5018357;28;20569;-51
2023/04/26 03:05:58;;;;;;;4.47;2.17;;;4.60;99.90;;;;;;5000761;28;20474;-53
2023/04/26 03:08:27;;;;;;;5.03;2.13;;;4.60;99.90;;;;;;5015957;28;20471;-54
2023/04/26 03:10:55;;;;;;;6.83;2.70;;;4.60;99.90;;;;;;5000161;28;21159;-53
2023/04/26 03:13:24;;;;;;;6.40;2.70;;;4.60;99.90;;;;;;5019606;28;20486;-54
2023/04/26 03:15:54;;;;;;;6.53;2.53;;;4.50;99.90;;;;;;5019289;28;21028;-55
2023/04/26 03:18:22;;;;;;;9.57;2.70;;;4.50;99.90;;;;;;4997104;28;20496;-52
2023/04/26 03:20:51;;;;;;;6.27;2.77;;;4.50;99.90;;;;;;5018957;28;20474;-53
2023/04/26 03:23:23;;;;;;;7.00;3.17;;;4.50;99.90;;;;;;4999832;28;20474;-55
2023/04/26 03:25:53;;;;;;;9.37;2.63;;;4.50;99.90;;;;;;5021128;28;20486;-54
2023/04/26 03:28:21;;;;;;;5.57;2.60;;;4.50;99.90;;;;;;4997024;28;20694;-52
2023/04/26 03:30:49;;;;;;;8.33;2.50;;;4.50;99.90;;;;;;5012275;28;20464;-50
2023/04/26 03:33:18;;;;;;;5.77;2.20;;;4.50;99.90;;;;;;4996456;28;20507;-54
2023/04/26 03:35:46;;;;;;;5.83;2.20;;;4.50;99.90;;;;;;4996719;28;20273;-53
2023/04/26 03:38:14;;;;;;;6.17;2.27;;;4.40;99.90;;;;;;4993190;28;20488;-53
2023/04/26 03:40:42;;;;;;;7.00;2.40;;;4.30;99.90;;;;;;4996471;28;20472;-54
2023/04/26 03:43:12;;;;;;;6.77;2.20;;;4.30;99.90;;;;;;4997929;28;20217;-53
2023/04/26 03:45:40;;;;;;;3.13;2.10;;;4.30;99.90;;;;;;4997719;28;20466;-53
2023/04/26 03:48:08;;;;;;;6.53;2.07;;;4.30;99.90;;;;;;4992556;28;20479;-52
2023/04/26 03:50:36;;;;;;;5.20;2.07;;;4.30;99.90;;;;;;5012376;28;20482;-52
2023/04/26 03:53:05;;;;;;;6.13;2.70;;;4.30;99.90;;;;;;4996032;28;20990;-53
2023/04/26 03:55:33;;;;;;;8.00;2.37;;;4.20;99.90;;;;;;4997691;28;21108;-54
2023/04/26 03:58:02;;;;;;;8.70;2.97;;;4.20;99.90;;;;;;4993954;28;20492;-53
2023/04/26 04:00:31;;;;;;;7.50;2.67;;;4.20;99.90;;;;;;4997554;28;20495;-55
2023/04/26 04:02:59;;;;;;;4.73;2.10;;;4.20;99.90;;;;;;5013116;28;20508;-54
2023/04/26 04:05:28;;;;;;;8.87;2.60;;;4.20;99.90;;;;;;5012575;28;20503;-54
2023/04/26 04:07:57;;;;;;;5.27;2.50;;;4.20;99.90;;;;;;5010140;28;20474;-54
2023/04/26 04:10:26;;;;;;;7.57;2.60;;;4.30;99.90;;;;;;4996097;28;20600;-51
2023/04/26 04:12:54;;;;;;;4.93;2.47;;;4.30;99.90;;;;;;5011760;28;20464;-54
2023/04/26 04:15:23;;;;;;;7.63;2.80;;;4.40;99.90;;;;;;4995924;28;20570;-53
2023/04/26 04:17:52;;;;;;;7.70;2.80;;;4.40;99.90;;;;;;4993093;28;20573;-54
2023/04/26 04:20:21;;;;;;;7.17;2.40;;;4.50;99.90;;;;;;5012676;28;21343;-52
2023/04/26 04:22:50;;;;;;;8.63;3.10;;;4.40;99.90;;;;;;4996630;28;20473;-53
2023/04/26 04:25:20;;;;;;;6.33;2.93;;;4.40;99.90;;;;;;4995691;28;20591;-53
2023/04/26 04:27:49;;;;;;;7.73;2.80;;;4.40;99.90;;;;;;4994895;28;20476;-52
2023/04/26 04:30:17;;;;;;;8.17;3.10;;;4.40;99.90;;;;;;4998407;28;20482;-52
2023/04/26 04:32:45;;;;;;;6.13;2.60;;;4.40;99.90;;;;;;4999213;28;20486;-53
2023/04/26 04:35:17;;;;;;;8.27;3.10;;;4.40;99.90;;;;;;4998554;28;20482;-53
2023/04/26 04:37:45;;;;;;;6.77;3.03;;;4.40;99.90;;;;;;4996324;28;20575;-53
2023/04/26 04:40:13;;;;;;;9.97;2.90;;;4.40;99.90;;;;;;4998088;28;21060;-54
2023/04/26 04:42:45;;;;;;;8.43;3.43;;;4.40;99.90;;;;;;4998503;28;20239;-54
2023/04/26 04:45:14;;;;;;;7.77;3.17;;;4.40;99.90;;;;;;4998110;28;21190;-55
2023/04/26 04:47:42;;;;;;;7.77;3.30;;;4.30;99.90;;;;;;5012439;28;20472;-53
2023/04/26 04:50:11;;;;;;;5.87;3.07;;;4.30;99.90;;;;;;4999160;28;20571;-53
2023/04/26 04:52:41;;;;;;;11.60;2.83;;;4.30;99.90;;;;;;4997513;28;20530;-54
2023/04/26 04:55:09;;;;;;;9.20;3.10;;;4.40;99.90;;;;;;4997764;28;20474;-53
2023/04/26 04:57:39;;;;;;;7.93;3.07;;;4.40;99.90;;;;;;4994885;28;21208;-54
2023/04/26 05:00:11;;;;;;;7.97;3.03;;;4.40;99.90;;;;;;4999088;28;21010;-53
2023/04/26 05:02:47;;;;;;;8.07;3.10;;;4.40;99.90;;;;;;5002678;28;21205;-53
2023/04/26 05:05:16;;;;;;;6.53;2.80;;;4.50;99.90;;;;;;5016016;28;20483;-55
2023/04/26 05:07:46;;;;;;;6.13;2.90;;;4.50;99.90;;;;;;4996532;28;20475;-53
2023/04/26 05:10:15;;;;;;;9.10;3.00;;;4.60;99.90;;;;;;4998738;28;21033;-53
2023/04/26 05:12:43;;;;;;;7.17;3.00;;;4.60;99.90;;;;;;5001165;28;20478;-53
2023/04/26 05:15:11;;;;;;;7.47;3.07;;;4.60;99.90;;;;;;5001741;28;20484;-53
2023/04/26 05:17:41;;;;;;;8.60;3.37;;;4.70;99.90;;;;;;4998621;28;20519;-54
2023/04/26 05:20:21;;;;;;;5.80;2.90;;;4.70;99.90;;;;;;5001716;28;20476;-54
2023/04/26 05:22:52;;;;;;;7.07;3.33;;;4.80;99.90;;;;;;5018443;28;20259;-54
2023/04/26 05:25:20;;;;;;;8.17;3.17;;;4.80;99.90;;;;;;5000657;28;20521;-53
2023/04/26 05:27:54;;;;;;;7.33;3.20;;;4.90;99.90;;;;;;4995027;28;20490;-54
2023/04/26 05:30:46;;;;;;;8.93;3.70;;;5.00;99.90;;;;;;4997817;28;20566;-54
2023/04/26 05:33:39;;;;;;;6.83;3.50;;;5.10;99.90;;;;;;4998448;28;20853;-55
2023/04/26 05:36:20;;;;;;;10.13;3.70;;;5.20;99.90;;;;;;4998619;28;20231;-55
2023/04/26 05:38:49;;;;;;;7.70;3.37;;;5.40;99.90;;;;;;4995320;28;20622;-55
2023/04/26 05:41:17;;;;;;;13.77;3.70;;;5.40;99.90;;;;;;4999971;28;20459;-54
2023/04/26 05:43:47;;;;;;;8.90;3.77;;;5.40;99.90;;;;;;5014277;28;20256;-53
2023/04/26 05:46:15;;;;;;;9.60;3.37;;;5.40;99.90;;;;;;5014196;28;20468;-55
2023/04/26 05:48:43;;;;;;;6.60;3.57;;;5.50;99.90;;;;;;4995014;28;20499;-54
2023/04/26 05:51:12;;;;;;;8.53;3.60;;;5.40;99.90;;;;;;4994572;28;20598;-54
2023/04/26 05:53:40;;;;;;;10.33;3.67;;;5.40;99.90;;;;;;4998116;28;20466;-54
2023/04/26 05:56:10;;;;;;;9.30;3.47;;;5.50;99.90;;;;;;4997995;28;20488;-54
2023/04/26 05:58:38;;;;;;;8.20;3.60;;;5.80;99.90;;;;;;4995681;28;20243;-54
2023/04/26 06:01:06;;;;;;;7.73;3.63;;;6.20;99.90;;;;;;4991544;28;20235;-53
2023/04/26 06:03:34;;;;;;;9.03;3.53;;;6.30;99.90;;;;;;4997305;28;20816;-51
2023/04/26 06:06:02;;;;;;;8.80;3.80;;;6.20;99.90;;;;;;4977517;28;20239;-53
2023/04/26 06:08:31;;;;;;;8.57;3.70;;;6.10;99.90;;;;;;4997266;28;20221;-54
2023/04/26 06:10:59;;;;;;;9.77;3.60;;;6.00;99.90;;;;;;4999272;28;20228;-55
2023/04/26 06:13:29;;;;;;;7.63;3.50;;;6.10;99.90;;;;;;5012994;28;20696;-53
2023/04/26 06:15:59;;;;;;;7.93;3.90;;;6.20;99.90;;;;;;4999124;28;21558;-53
2023/04/26 06:18:27;;;;;;;10.50;4.30;;;6.20;99.90;;;;;;4993583;28;20244;-55
2023/04/26 06:20:55;;;;;;;11.20;3.83;;;6.30;99.90;;;;;;5013156;28;20232;-54
2023/04/26 06:23:23;;;;;;;11.90;3.97;;;6.30;99.90;;;;;;5014813;28;20355;-53
2023/04/26 06:25:51;;;;;;;11.03;4.30;;;6.30;99.90;;;;;;5013753;28;20701;-53
2023/04/26 06:28:19;;;;;;;8.93;3.47;;;6.20;99.90;;;;;;4997080;28;20591;-53
2023/04/26 06:30:49;;;;;;;7.00;3.50;;;6.10;99.90;;;;;;4998933;28;20731;-51
2023/04/26 06:33:17;;;;;;;7.47;3.50;;;6.20;99.90;;;;;;4998199;28;20761;-54
2023/04/26 06:35:45;;;;;;;7.57;3.80;;;6.30;99.90;;;;;;5000775;28;20246;-58
2023/04/26 06:38:14;;;;;;;5.87;3.13;;;6.30;99.90;;;;;;4996375;28;20701;-57
2023/04/26 06:40:42;;;;;;;9.43;4.03;;;6.30;99.90;;;;;;4999633;28;20903;-55
2023/04/26 06:43:11;;;;;;;9.80;3.63;;;6.30;99.90;;;;;;4997900;28;21285;-58
2023/04/26 06:46:02;;;;;;;10.47;4.20;;;6.30;99.90;;;;;;5000682;28;20731;-54
2023/04/26 06:48:30;;;;;;;5.80;3.40;;;6.40;99.90;;;;;;4999209;28;20214;-56
2023/04/26 06:50:58;;;;;;;6.70;3.53;;;6.40;99.90;;;;;;5000515;28;20235;-57
2023/04/26 06:53:26;;;;;;;9.77;3.47;;;6.40;99.90;;;;;;5001689;28;20229;-56
2023/04/26 06:55:56;;;;;;;7.63;3.70;;;6.60;99.90;;;;;;5001254;28;20252;-56
2023/04/26 06:58:24;;;;;;;5.17;3.13;;;6.80;99.90;;;;;;4999034;28;20225;-54
2023/04/26 07:00:52;;;;;;;9.80;3.80;;;7.10;99.90;;;;;;5006924;28;20724;-57
2023/04/26 07:03:21;;;;;;;7.40;3.50;;;7.30;99.90;;;;;;5021153;28;20220;-57
2023/04/26 07:05:50;;;;;;;7.97;3.30;;;7.50;99.90;;;;;;5020898;28;20224;-55
2023/04/26 07:08:18;;;;;;;9.67;3.80;;;7.80;99.90;;;;;;5018245;28;20231;-56
2023/04/26 07:10:46;;;;;;;10.47;3.23;;;8.00;99.90;;;;;;5020954;28;20237;-58
2023/04/26 07:13:14;;;;;;;10.33;3.50;;;8.20;99.90;;;;;;5020654;28;20746;-56
2023/04/26 07:15:42;;;;;;;8.30;3.40;;;8.30;99.90;;;;;;5020572;28;20328;-57
2023/04/26 07:18:11;;;;;;;9.17;3.60;;;8.60;99.90;;;;;;5017780;28;20264;-57
2023/04/26 07:20:40;;;;;;;6.20;3.47;;;8.90;99.90;;;;;;5021054;28;20348;-57
2023/04/26 07:23:08;;;;;;;7.10;3.20;;;9.10;99.90;;;;;;5021054;28;20710;-58
2023/04/26 07:25:36;;;;;;;9.57;3.17;;;9.50;99.90;;;;;;5020370;28;20233;-53
2023/04/26 07:28:05;;;;;;;7.07;3.20;;;9.70;99.90;;;;;;5018680;28;20277;-58
2023/04/26 07:30:33;;;;;;;9.27;3.40;;;9.90;99.90;;;;;;5017308;28;20273;-57
2023/04/26 07:33:01;;;;;;;8.93;2.87;;;10.00;99.90;;;;;;5001365;28;20235;-57
2023/04/26 07:35:30;;;;;;;5.00;2.97;;;10.10;99.90;;;;;;5000888;28;20230;-58
2023/04/26 07:37:59;;;;;;;7.60;3.17;;;10.40;99.90;;;;;;4998538;28;20689;-58
2023/04/26 07:40:28;;;;;;;4.90;2.60;;;10.80;99.90;;;;;;5001371;28;20246;-58
2023/04/26 07:42:56;;;;;;;5.63;2.80;;;10.60;99.90;;;;;;5001385;28;20234;-57
2023/04/26 07:45:24;;;;;;;7.57;2.67;;;10.80;99.90;;;;;;5000779;28;20591;-56
2023/04/26 07:47:52;;;;;;;9.07;3.10;;;10.80;99.90;;;;;;4998023;28;20279;-56
2023/04/26 07:50:20;;;;;;;8.13;2.63;;;11.20;99.90;;;;;;5001196;28;20231;-57
2023/04/26 07:52:48;;;;;;;7.70;3.00;;;11.30;99.90;;;;;;5000183;28;20242;-56
2023/04/26 07:55:18;;;;;;;7.60;3.13;;;11.00;99.90;;;;;;5001142;28;20246;-56
2023/04/26 07:57:46;;;;;;;7.77;2.63;;;10.60;99.90;;;;;;4998849;28;20231;-57
2023/04/26 08:00:16;;;;;;;6.57;2.30;;;10.30;99.90;;;;;;5000582;28;20233;-56
2023/04/26 08:02:45;;;;;;;8.40;2.57;;;9.90;99.90;;;;;;5001102;28;20239;-55
2023/04/26 08:05:14;;;;;;;9.33;2.90;;;9.70;99.90;;;;;;5000329;28;20243;-58
2023/04/26 08:07:43;;;;;;;8.80;3.07;;;9.80;99.90;;;;;;4998338;28;20222;-58
2023/04/26 08:10:11;;;;;;;9.13;3.03;;;10.10;99.90;;;;;;5000537;28;20236;-57
2023/04/26 08:12:41;;;;;;;6.50;2.33;;;10.30;99.90;;;;;;5000746;28;20262;-56
2023/04/26 08:15:10;;;;;;;5.20;2.00;;;10.40;99.90;;;;;;5000653;28;20326;-58
2023/04/26 08:17:38;;;;;;;5.77;2.17;;;10.30;99.90;;;;;;4998412;28;20610;-58
2023/04/26 08:20:09;;;;;;;6.57;2.50;;;10.10;99.90;;;;;;5000514;28;20230;-57
2023/04/26 08:22:37;;;;;;;7.27;2.40;;;10.30;99.90;;;;;;5000704;28;20234;-54
2023/04/26 08:25:06;;;;;;;4.37;2.33;;;10.90;99.90;;;;;;5000118;28;20234;-57
2023/04/26 08:27:35;;;;;;;5.87;2.43;;;11.20;99.90;;;;;;4997636;28;20232;-55
2023/04/26 08:30:06;;;;;;;4.93;2.17;;;11.60;99.90;;;;;;5000325;28;20714;-56
2023/04/26 08:32:34;;;;;;;5.77;1.90;;;11.60;99.90;;;;;;4999403;28;20722;-55
2023/04/26 08:35:02;;;;;;;5.40;2.47;;;11.90;99.90;;;;;;5002125;28;20589;-57
2023/04/26 08:37:30;;;;;;;5.80;2.10;;;12.20;99.90;;;;;;5002284;28;20734;-57
2023/04/26 08:39:58;;;;;;;5.77;2.30;;;12.30;99.90;;;;;;5004707;28;20233;-57
2023/04/26 08:42:27;;;;;;;7.57;2.03;;;12.30;99.90;;;;;;5004260;28;20251;-57
2023/04/26 08:44:56;;;;;;;3.73;1.80;;;12.60;99.90;;;;;;5004880;28;20323;-57
2023/04/26 08:47:35;;;;;;;6.40;2.07;;;13.00;99.90;;;;;;5002020;28;20235;-58
2023/04/26 08:50:05;;;;;;;8.33;2.20;;;12.90;99.90;;;;;;5004020;28;20352;-58
2023/04/26 08:52:35;;;;;;;5.63;2.00;;;13.20;99.90;;;;;;5003822;28;20608;-57
2023/04/26 08:55:05;;;;;;;4.53;1.97;;;13.50;99.90;;;;;;5003653;28;20587;-58
2023/04/26 08:57:34;;;;;;;7.10;1.97;;;13.90;99.90;;;;;;5000902;28;20238;-55
2023/04/26 09:00:04;;;;;;;9.60;2.00;;;13.90;99.90;;;;;;5004727;28;21267;-57
2023/04/26 09:02:35;;;;;;;7.07;2.10;;;13.90;99.90;;;;;;5003274;28;20294;-54
2023/04/26 09:05:05;;;;;;;5.37;2.53;;;13.90;99.90;;;;;;5003389;28;20249;-56
2023/04/26 09:07:39;;;;;;;6.33;2.37;;;13.70;99.90;;;;;;5000781;28;20229;-57
2023/04/26 09:10:08;;;;;;;6.67;2.63;;;13.40;99.90;;;;;;5002835;28;20239;-57
2023/04/26 09:12:36;;;;;;;6.10;2.10;;;13.10;99.90;;;;;;5003303;28;20267;-57
2023/04/26 09:15:07;;;;;;;6.87;2.17;;;12.80;99.90;;;;;;5003216;28;20399;-56
2023/04/26 09:17:38;;;;;;;4.83;1.70;;;11.90;99.90;;;;;;5000555;28;20731;-57
2023/04/26 09:20:20;;;;;;;5.00;2.00;;;11.20;99.90;;;;;;5003621;28;20301;-56
2023/04/26 09:22:48;;;;;;;5.33;1.70;;;10.20;99.90;;;;;;5003977;28;20595;-58
2023/04/26 09:25:18;;;;;;;5.60;1.60;;;9.70;99.90;;;;;;5003621;28;20239;-58
2023/04/26 09:27:46;;;;;;;4.30;1.97;;;9.30;99.90;;;;;;5001571;28;20243;-57
2023/04/26 09:30:17;;;;;;;5.23;1.70;;;9.50;99.90;;;;;;5003130;28;20236;-58
2023/04/26 09:32:50;;;;;;;4.37;1.93;;;9.60;99.90;;;;;;5003584;28;20591;-59
2023/04/26 09:35:24;;;;;;;6.83;1.93;;;9.70;99.90;;;;;;5003680;28;20234;-58
2023/04/26 09:37:55;;;;;;;6.17;2.27;;;9.60;99.90;;;;;;5001647;28;20246;-56
2023/04/26 09:40:30;;;;;;;5.30;2.10;;;9.20;99.90;;;;;;5002859;28;20253;-57
2023/04/26 09:43:03;;;;;;;6.33;2.40;;;8.70;99.90;;;;;;5003590;28;20234;-55
2023/04/26 09:45:33;;;;;;;5.07;1.73;;;8.40;99.90;;;;;;5002655;28;20260;-57
2023/04/26 09:48:21;;;;;;;5.30;1.93;;;8.10;99.90;;;;;;5001012;28;20331;-57
2023/04/26 09:50:51;;;;;;;3.40;1.70;;;7.80;99.90;;;;;;5003427;28;20637;-54
2023/04/26 09:53:30;;;;;;;6.70;2.00;;;7.60;99.90;;;;;;5003198;28;20238;-57
2023/04/26 09:56:07;;;;;;;3.77;1.53;;;7.40;99.90;;;;;;5003167;28;20759;-57
2023/04/26 09:58:37;;;;;;;7.33;1.47;;;7.20;99.90;;;;;;5000144;28;20681;-58
2023/04/26 10:01:06;;;;;;;5.07;1.63;;;7.20;99.90;;;;;;5009702;28;20243;-54
2023/04/26 10:03:37;;;;;;;4.20;1.50;;;7.40;99.90;;;;;;5022010;28;20341;-55
2023/04/26 10:06:06;;;;;;;5.67;1.83;;;8.00;99.90;;;;;;5022550;28;20287;-57
2023/04/26 10:08:35;;;;;;;4.03;1.60;;;8.70;99.90;;;;;;5019617;28;20623;-56
2023/04/26 10:11:04;;;;;;;4.80;1.53;;;9.40;99.90;;;;;;5022403;28;20228;-57
2023/04/26 10:13:33;;;;;;;5.63;1.87;;;9.70;99.90;;;;;;5022274;28;20783;-57
2023/04/26 10:16:02;;;;;;;6.63;1.50;;;9.50;99.90;;;;;;5024788;28;20234;-57
2023/04/26 10:18:31;;;;;;;4.47;1.40;;;8.90;99.90;;;;;;5020268;28;20251;-57
2023/04/26 10:21:15;;;;;;;3.90;1.30;;;8.40;99.90;;;;;;5022823;28;20244;-58
2023/04/26 10:23:43;;;;;;;5.80;1.40;;;8.10;99.90;;;;;;5022385;28;20243;-57
2023/04/26 10:26:45;;;;;;;4.77;1.17;;;8.00;99.90;;;;;;5022334;28;20235;-57
2023/04/26 10:29:14;;;;;;;3.57;1.40;;;8.00;99.90;;;;;;5022023;28;20719;-57
2023/04/26 10:32:09;;;;;;;5.23;1.33;;;8.10;99.90;;;;;;5021719;28;20352;-58
2023/04/26 10:34:37;;;;;;;3.67;1.43;;;8.40;99.90;;;;;;5019936;28;20323;-57
2023/04/26 10:37:12;;;;;;;3.47;1.70;;;8.70;99.90;;;;;;5015333;28;20241;-58
2023/04/26 10:39:42;;;;;;;4.67;1.47;;;8.90;99.90;;;;;;5018971;28;20708;-57
2023/04/26 10:42:25;;;;;;;2.80;1.40;;;9.10;99.90;;;;;;5019363;28;20237;-58
2023/04/26 10:44:54;;;;;;;3.33;1.30;;;9.50;99.90;;;;;;5019656;28;20229;-57
2023/04/26 10:47:29;;;;;;;5.27;1.70;;;9.90;99.90;;;;;;5016306;28;20269;-53
2023/04/26 10:50:08;;;;;;;2.60;1.30;;;10.50;99.90;;;;;;5022076;28;20249;-57
2023/04/26 10:52:58;;;;;;;4.47;1.53;;;11.00;99.90;;;;;;5022012;28;20226;-57
2023/04/26 10:55:38;;;;;;;4.90;1.47;;;11.50;99.90;;;;;;5021168;28;20231;-56
2023/04/26 10:58:26;;;;;;;5.67;1.40;;;12.10;99.90;;;;;;5018435;28;20713;-56
2023/04/26 11:01:10;;;;;;;5.20;1.60;;;11.90;99.90;;;;;;5021794;28;20297;-57
2023/04/26 11:03:38;;;;;;;5.87;1.47;;;11.40;99.90;;;;;;5020637;28;20229;-58
2023/04/26 11:06:08;;;;;;;4.37;1.40;;;10.80;99.90;;;;;;5020754;28;20227;-57
2023/04/26 11:08:38;;;;;;;4.47;1.60;;;10.40;99.90;;;;;;5018274;28;20233;-56
2023/04/26 11:11:10;;;;;;;4.97;1.40;;;10.20;99.90;;;;;;5021040;28;20705;-55
2023/04/26 11:13:40;;;;;;;8.37;1.70;;;10.10;99.90;;;;;;5020513;28;20231;-57
2023/04/26 11:16:09;;;;;;;3.97;1.20;;;10.10;99.90;;;;;;5020544;28;20589;-57
2023/04/26 11:18:39;;;;;;;5.83;1.53;;;10.50;99.90;;;;;;5018106;28;20698;-56
2023/04/26 11:21:07;;;;;;;8.03;1.67;;;11.50;99.90;;;;;;5021103;28;20230;-58
2023/04/26 11:23:36;;;;;;;4.53;1.70;;;12.00;99.90;;;;;;5020375;28;20220;-57
2023/04/26 11:26:07;;;;;;;3.23;1.53;;;12.40;99.90;;;;;;5020585;28;20240;-57
2023/04/26 11:28:36;;;;;;;3.97;1.53;;;12.70;99.90;;;;;;5018048;28;20232;-56
2023/04/26 11:31:06;;;;;;;5.87;1.40;;;12.30;99.90;;;;;;5020382;28;20250;-54
2023/04/26 11:33:34;;;;;;;3.07;1.10;;;12.00;99.90;;;;;;5019872;28;20327;-56
2023/04/26 11:36:02;;;;;;;3.90;1.00;;;12.10;99.90;;;;;;5020946;28;20726;-58
2023/04/26 11:38:30;;;;;;;4.97;1.17;;;11.80;99.90;;;;;;5018059;28;20245;-57
2023/04/26 11:41:00;;;;;;;3.20;1.07;;;11.90;99.90;;;;;;5020672;28;20218;-54
2023/04/26 11:43:36;;;;;;;4.53;1.13;;;11.70;99.90;;;;;;5019889;28;20317;-53
2023/04/26 11:46:06;;;;;;;4.53;1.40;;;11.30;99.90;;;;;;5019849;28;20260;-53
2023/04/26 11:48:35;;;;;;;3.27;1.37;;;10.90;99.90;;;;;;5017260;28;20266;-56
2023/04/26 11:51:05;;;;;;;5.00;1.20;;;10.60;99.90;;;;;;5019941;28;20239;-57
2023/04/26 11:53:37;;;;;;;3.37;1.00;;;10.60;99.90;;;;;;5019797;28;20900;-58
2023/04/26 11:56:14;;;;;;;3.23;1.20;;;10.30;99.90;;;;;;5019963;28;20227;-55
2023/04/26 11:58:46;;;;;;;5.03;1.43;;;10.30;99.90;;;;;;5018077;28;20760;-54
2023/04/26 12:01:22;;;;;;;4.80;1.30;;;10.70;99.90;;;;;;5019764;28;20246;-57
2023/04/26 12:03:51;;;;;;;4.03;1.00;;;10.60;99.90;;;;;;5020628;28;20240;-56
2023/04/26 12:06:20;;;;;;;3.27;1.40;;;10.60;99.90;;;;;;5020078;28;20219;-55
2023/04/26 12:08:51;;;;;;;7.67;1.40;;;10.40;99.90;;;;;;5014979;28;20234;-58
2023/04/26 12:11:22;;;;;;;7.53;1.30;;;10.30;99.90;;;;;;5017430;28;20680;-58
2023/04/26 12:13:51;;;;;;;5.83;1.23;;;10.20;99.90;;;;;;5017415;28;20617;-55
2023/04/26 12:16:19;;;;;;;9.67;1.47;;;10.10;99.90;;;;;;5017903;28;20228;-57
2023/04/26 12:18:54;;;;;;;4.13;1.30;;;10.00;99.90;;;;;;5015694;28;20234;-56
2023/04/26 12:21:23;;;;;;;5.20;1.30;;;10.00;99.90;;;;;;5020003;28;20265;-58
2023/04/26 12:23:52;;;;;;;4.20;1.40;;;10.10;99.90;;;;;;5019939;28;20224;-56
2023/04/26 12:26:20;;;;;;;4.60;1.20;;;10.00;99.90;;;;;;5019975;28;20248;-56
2023/04/26 12:28:50;;;;;;;5.80;1.07;;;10.10;99.90;;;;;;5017542;28;20270;-58
2023/04/26 12:31:20;;;;;;;3.67;1.40;;;10.20;99.90;;;;;;5020297;28;20937;-56
2023/04/26 12:33:48;;;;;;;3.10;1.03;;;10.30;99.90;;;;;;5016901;28;20257;-55
2023/04/26 12:36:16;;;;;;;2.97;1.03;;;10.40;99.90;;;;;;5017468;28;20725;-54
2023/04/26 12:38:44;;;;;;;4.80;1.53;;;10.80;99.90;;;;;;5013391;28;20243;-54
2023/04/26 12:41:12;;;;;;;6.73;1.20;;;11.10;99.90;;;;;;5016905;28;20234;-55
2023/04/26 12:43:40;;;;;;;9.93;2.03;;;11.10;99.90;;;;;;5016290;28;20231;-56
2023/04/26 12:46:09;;;;;;;6.23;1.40;;;11.10;99.90;;;;;;5015769;28;20246;-54
2023/04/26 12:48:39;;;;;;;3.87;1.00;;;11.30;99.90;;;;;;5013401;28;20564;-55
2023/04/26 12:51:08;;;;;;;2.97;0.90;;;11.30;99.90;;;;;;5016558;28;20699;-56
2023/04/26 12:53:38;;;;;;;2.80;0.90;;;11.20;99.90;;;;;;5015678;28;20235;-54
2023/04/26 12:56:06;;;;;;;4.60;1.20;;;11.30;99.90;;;;;;5015754;28;20241;-53
2023/04/26 12:58:34;;;;;;;5.87;1.23;;;11.50;99.90;;;;;;5013174;28;20492;-55
2023/04/26 13:01:02;;;;;;;3.73;1.40;;;11.60;99.90;;;;;;5016553;28;20245;-52
2023/04/26 13:03:30;;;;;;;4.50;1.30;;;11.70;99.90;;;;;;5016885;28;20584;-55
2023/04/26 13:06:00;;;;;;;4.67;1.17;;;11.80;99.90;;;;;;5016943;28;20237;-54